sensor_id;sensor_type;location;lat;lon;timestamp;pressure;altitude;pressure_sealevel;temperature;humidity
72570;BME280;60594;50.204;8.844;2023-12-29T00:02:06;99829.38;;;8.63;100.00
72570;BME280;60594;50.204;8.844;2023-12-29T00:04:32;99823.22;;;8.63;100.00
72570;BME280;60594;50.204;8.844;2023-12-29T00:06:58;99813.91;;;8.57;100.00
72570;BME280;60594;50.204;8.844;2023-12-29T00:09:25;99807.41;;;8.61;100.00
72570;BME280;60594;50.204;8.844;2023-12-29T00:11:51;99797.63;;;8.62;100.00
72570;BME280;60594;50.204;8.844;2023-12-29T00:14:18;99804.84;;;8.60;100.00
72570;BME280;60594;50.204;8.844;2023-12-29T00:16:44;99803.28;;;8.57;100.00
72570;BME280;60594;50.204;8.844;2023-12-29T00:19:12;99802.09;;;8.61;100.00
72570;BME280;60594;50.204;8.844;2023-12-29T00:21:38;99804.75;;;8.61;100.00
72570;BME280;60594;50.204;8.844;2023-12-29T00:24:05;99799.66;;;8.58;100.00
72570;BME280;60594;50.204;8.844;2023-12-29T00:26:31;99797.50;;;8.52;100.00
72570;BME280;60594;50.204;8.844;2023-12-29T00:28:59;99795.69;;;8.53;100.00
72570;BME280;60594;50.204;8.844;2023-12-29T00:31:26;99793.75;;;8.55;100.00
72570;BME280;60594;50.204;8.844;2023-12-29T00:33:53;99793.75;;;8.55;100.00
72570;BME280;60594;50.204;8.844;2023-12-29T00:36:20;99787.13;;;8.49;100.00
72570;BME280;60594;50.204;8.844;2023-12-29T00:38:48;99785.91;;;8.53;100.00
72570;BME280;60594;50.204;8.844;2023-12-29T00:41:14;99781.56;;;8.52;100.00
72570;BME280;60594;50.204;8.844;2023-12-29T00:43:42;99777.31;;;8.50;100.00
72570;BME280;60594;50.204;8.844;2023-12-29T00:46:09;99765.25;;;8.57;100.00
72570;BME280;60594;50.204;8.844;2023-12-29T00:48:35;99782.91;;;8.58;100.00
72570;BME280;60594;50.204;8.844;2023-12-29T00:51:02;99770.44;;;8.58;100.00
72570;BME280;60594;50.204;8.844;2023-12-29T00:53:30;99768.03;;;8.55;100.00
72570;BME280;60594;50.204;8.844;2023-12-29T00:55:59;99762.25;;;8.50;100.00
72570;BME280;60594;50.204;8.844;2023-12-29T00:58:26;99766.22;;;8.56;100.00
72570;BME280;60594;50.204;8.844;2023-12-29T01:00:53;99765.13;;;8.58;100.00
72570;BME280;60594;50.204;8.844;2023-12-29T01:03:21;99770.09;;;8.52;100.00
72570;BME280;60594;50.204;8.844;2023-12-29T01:05:48;99777.81;;;8.55;100.00
72570;BME280;60594;50.204;8.844;2023-12-29T01:08:14;99764.78;;;8.52;100.00
72570;BME280;60594;50.204;8.844;2023-12-29T01:10:41;99773.47;;;8.54;100.00
72570;BME280;60594;50.204;8.844;2023-12-29T01:13:07;99765.25;;;8.46;100.00
72570;BME280;60594;50.204;8.844;2023-12-29T01:15:35;99761.38;;;8.50;100.00
72570;BME280;60594;50.204;8.844;2023-12-29T01:18:01;99752.22;;;8.54;100.00
72570;BME280;60594;50.204;8.844;2023-12-29T01:20:28;99761.16;;;8.53;100.00
72570;BME280;60594;50.204;8.844;2023-12-29T01:22:54;99761.66;;;8.47;100.00
72570;BME280;60594;50.204;8.844;2023-12-29T01:25:21;99762.13;;;8.41;100.00
72570;BME280;60594;50.204;8.844;2023-12-29T01:27:47;99751.50;;;8.41;100.00
72570;BME280;60594;50.204;8.844;2023-12-29T01:30:13;99752.09;;;8.44;100.00
72570;BME280;60594;50.204;8.844;2023-12-29T01:32:40;99757.66;;;8.41;100.00
72570;BME280;60594;50.204;8.844;2023-12-29T01:35:07;99769.34;;;8.39;100.00
72570;BME280;60594;50.204;8.844;2023-12-29T01:37:34;99756.81;;;8.41;100.00
72570;BME280;60594;50.204;8.844;2023-12-29T01:40:00;99768.63;;;8.37;100.00
72570;BME280;60594;50.204;8.844;2023-12-29T01:42:26;99753.06;;;8.43;100.00
72570;BME280;60594;50.204;8.844;2023-12-29T01:44:53;99761.50;;;8.48;100.00
72570;BME280;60594;50.204;8.844;2023-12-29T01:47:21;99755.13;;;8.51;100.00
72570;BME280;60594;50.204;8.844;2023-12-29T01:49:49;99760.44;;;8.62;99.74
72570;BME280;60594;50.204;8.844;2023-12-29T01:52:17;99755.97;;;8.62;100.00
72570;BME280;60594;50.204;8.844;2023-12-29T01:54:46;99750.28;;;8.56;100.00
72570;BME280;60594;50.204;8.844;2023-12-29T01:57:14;99761.50;;;8.59;99.33
72570;BME280;60594;50.204;8.844;2023-12-29T01:59:41;99773.72;;;8.62;99.70
72570;BME280;60594;50.204;8.844;2023-12-29T02:02:09;99768.41;;;8.73;98.36
72570;BME280;60594;50.204;8.844;2023-12-29T02:04:36;99752.34;;;8.74;97.60
72570;BME280;60594;50.204;8.844;2023-12-29T02:07:05;99751.72;;;8.71;98.04
72570;BME280;60594;50.204;8.844;2023-12-29T02:09:31;99751.03;;;8.69;98.03
72570;BME280;60594;50.204;8.844;2023-12-29T02:12:00;99757.16;;;8.69;97.60
72570;BME280;60594;50.204;8.844;2023-12-29T02:14:26;99750.41;;;8.76;96.59
72570;BME280;60594;50.204;8.844;2023-12-29T02:17:04;99748.47;;;8.78;96.49
72570;BME280;60594;50.204;8.844;2023-12-29T02:19:41;99744.09;;;8.77;95.98
72570;BME280;60594;50.204;8.844;2023-12-29T02:22:08;99735.31;;;8.77;96.45
72570;BME280;60594;50.204;8.844;2023-12-29T02:24:35;99740.50;;;8.78;95.63
72570;BME280;60594;50.204;8.844;2023-12-29T02:29:50;99736.13;;;8.77;94.64
72570;BME280;60594;50.204;8.844;2023-12-29T02:32:22;99743.88;;;8.80;94.99
72570;BME280;60594;50.204;8.844;2023-12-29T02:34:50;99750.88;;;8.81;94.97
72570;BME280;60594;50.204;8.844;2023-12-29T02:37:19;99738.56;;;8.80;93.59
72570;BME280;60594;50.204;8.844;2023-12-29T02:39:45;99745.81;;;8.78;93.78
72570;BME280;60594;50.204;8.844;2023-12-29T02:42:12;99746.53;;;8.80;93.45
72570;BME280;60594;50.204;8.844;2023-12-29T02:44:38;99739.28;;;8.82;93.11
72570;BME280;60594;50.204;8.844;2023-12-29T02:47:05;99737.69;;;8.80;94.00
72570;BME280;60594;50.204;8.844;2023-12-29T02:49:33;99742.88;;;8.81;93.45
72570;BME280;60594;50.204;8.844;2023-12-29T02:51:59;99736.13;;;8.77;94.21
72570;BME280;60594;50.204;8.844;2023-12-29T02:54:26;99735.44;;;8.75;94.83
72570;BME280;60594;50.204;8.844;2023-12-29T02:56:52;99740.25;;;8.70;94.65
72570;BME280;60594;50.204;8.844;2023-12-29T02:59:19;99746.53;;;8.69;95.17
72570;BME280;60594;50.204;8.844;2023-12-29T03:01:46;99737.75;;;8.69;94.98
72570;BME280;60594;50.204;8.844;2023-12-29T03:04:12;99745.94;;;8.66;95.44
72570;BME280;60594;50.204;8.844;2023-12-29T03:06:40;99751.16;;;8.67;94.75
72570;BME280;60594;50.204;8.844;2023-12-29T03:09:07;99748.94;;;8.72;95.01
72570;BME280;60594;50.204;8.844;2023-12-29T03:11:34;99749.69;;;8.74;94.50
72570;BME280;60594;50.204;8.844;2023-12-29T03:14:00;99747.28;;;8.71;94.13
72570;BME280;60594;50.204;8.844;2023-12-29T03:16:27;99747.75;;;8.65;94.85
72570;BME280;60594;50.204;8.844;2023-12-29T03:18:53;99744.75;;;8.70;94.73
72570;BME280;60594;50.204;8.844;2023-12-29T03:21:19;99729.41;;;8.62;94.92
72570;BME280;60594;50.204;8.844;2023-12-29T03:23:47;99725.53;;;8.55;95.54
72570;BME280;60594;50.204;8.844;2023-12-29T03:26:13;99732.06;;;8.51;95.87
72570;BME280;60594;50.204;8.844;2023-12-29T03:28:40;99723.00;;;8.54;95.40
72570;BME280;60594;50.204;8.844;2023-12-29T03:31:06;99729.16;;;8.54;95.94
72570;BME280;60594;50.204;8.844;2023-12-29T03:33:33;99731.81;;;8.54;95.64
72570;BME280;60594;50.204;8.844;2023-12-29T03:35:59;99717.97;;;8.51;95.72
72570;BME280;60594;50.204;8.844;2023-12-29T03:38:25;99717.47;;;8.46;96.23
72570;BME280;60594;50.204;8.844;2023-12-29T03:40:52;99702.97;;;8.50;95.92
72570;BME280;60594;50.204;8.844;2023-12-29T03:43:19;99693.78;;;8.54;95.39
72570;BME280;60594;50.204;8.844;2023-12-29T03:45:46;99693.09;;;8.52;95.95
72570;BME280;60594;50.204;8.844;2023-12-29T03:48:12;99683.31;;;8.52;95.55
72570;BME280;60594;50.204;8.844;2023-12-29T03:50:39;99674.63;;;8.50;95.36
72570;BME280;60594;50.204;8.844;2023-12-29T03:53:05;99664.47;;;8.44;95.25
72570;BME280;60594;50.204;8.844;2023-12-29T03:55:32;99657.00;;;8.49;95.02
72570;BME280;60594;50.204;8.844;2023-12-29T03:57:58;99652.16;;;8.43;95.77
72570;BME280;60594;50.204;8.844;2023-12-29T04:00:25;99655.19;;;8.39;95.62
72570;BME280;60594;50.204;8.844;2023-12-29T04:02:51;99657.00;;;8.38;95.33
72570;BME280;60594;50.204;8.844;2023-12-29T04:05:17;99657.84;;;8.39;95.03
72570;BME280;60594;50.204;8.844;2023-12-29T04:07:44;99661.69;;;8.46;94.64
72570;BME280;60594;50.204;8.844;2023-12-29T04:10:10;99666.88;;;8.47;94.32
72570;BME280;60594;50.204;8.844;2023-12-29T04:12:37;99663.25;;;8.48;93.97
72570;BME280;60594;50.204;8.844;2023-12-29T04:15:04;99667.13;;;8.44;93.45
72570;BME280;60594;50.204;8.844;2023-12-29T04:17:31;99673.41;;;8.43;93.64
72570;BME280;60594;50.204;8.844;2023-12-29T04:19:57;99666.41;;;8.42;93.74
72570;BME280;60594;50.204;8.844;2023-12-29T04:22:24;99661.22;;;8.41;94.08
72570;BME280;60594;50.204;8.844;2023-12-29T04:24:50;99658.94;;;8.36;94.01
72570;BME280;60594;50.204;8.844;2023-12-29T04:27:17;99650.94;;;8.47;93.61
72570;BME280;60594;50.204;8.844;2023-12-29T04:29:44;99666.88;;;8.47;93.58
72570;BME280;60594;50.204;8.844;2023-12-29T04:32:11;99655.81;;;8.42;93.93
72570;BME280;60594;50.204;8.844;2023-12-29T04:34:38;99678.72;;;8.43;93.71
72570;BME280;60594;50.204;8.844;2023-12-29T04:37:04;99677.03;;;8.42;94.41
72570;BME280;60594;50.204;8.844;2023-12-29T04:39:31;99681.50;;;8.42;93.98
72570;BME280;60594;50.204;8.844;2023-12-29T04:41:58;99695.75;;;8.41;94.36
72570;BME280;60594;50.204;8.844;2023-12-29T04:44:24;99688.63;;;8.41;94.50
72570;BME280;60594;50.204;8.844;2023-12-29T04:46:50;99685.72;;;8.44;94.62
72570;BME280;60594;50.204;8.844;2023-12-29T04:49:17;99693.78;;;8.43;94.66
72570;BME280;60594;50.204;8.844;2023-12-29T04:51:43;99686.94;;;8.40;94.55
72570;BME280;60594;50.204;8.844;2023-12-29T04:54:10;99690.56;;;8.39;95.35
72570;BME280;60594;50.204;8.844;2023-12-29T04:56:36;99696.22;;;8.46;94.89
72570;BME280;60594;50.204;8.844;2023-12-29T04:59:03;99690.06;;;8.45;95.14
72570;BME280;60594;50.204;8.844;2023-12-29T05:01:29;99679.81;;;8.52;94.77
72570;BME280;60594;50.204;8.844;2023-12-29T05:03:56;99684.47;;;8.59;94.33
72570;BME280;60594;50.204;8.844;2023-12-29T05:06:22;99686.44;;;8.57;94.92
72570;BME280;60594;50.204;8.844;2023-12-29T05:08:49;99678.22;;;8.60;94.29
72570;BME280;60594;50.204;8.844;2023-12-29T05:11:15;99687.13;;;8.59;94.93
72570;BME280;60594;50.204;8.844;2023-12-29T05:13:42;99701.63;;;8.55;95.08
72570;BME280;60594;50.204;8.844;2023-12-29T05:16:08;99692.44;;;8.59;94.92
72570;BME280;60594;50.204;8.844;2023-12-29T05:18:35;99687.53;;;8.55;95.21
72570;BME280;60594;50.204;8.844;2023-12-29T05:21:01;99673.41;;;8.54;94.77
72570;BME280;60594;50.204;8.844;2023-12-29T05:23:28;99673.41;;;8.54;95.34
72570;BME280;60594;50.204;8.844;2023-12-29T05:25:54;99670.03;;;8.52;95.06
72570;BME280;60594;50.204;8.844;2023-12-29T05:28:20;99664.97;;;8.49;95.18
72570;BME280;60594;50.204;8.844;2023-12-29T05:30:47;99658.56;;;8.52;94.72
72570;BME280;60594;50.204;8.844;2023-12-29T05:33:14;99653.59;;;8.47;95.21
72570;BME280;60594;50.204;8.844;2023-12-29T05:35:40;99660.25;;;8.53;94.47
72570;BME280;60594;50.204;8.844;2023-12-29T05:38:07;99671.84;;;8.52;94.27
72570;BME280;60594;50.204;8.844;2023-12-29T05:40:33;99674.03;;;8.47;94.99
72570;BME280;60594;50.204;8.844;2023-12-29T05:42:59;99674.97;;;8.46;95.02
72570;BME280;60594;50.204;8.844;2023-12-29T05:45:26;99656.03;;;8.39;95.57
72570;BME280;60594;50.204;8.844;2023-12-29T05:47:52;99658.81;;;8.38;95.93
72570;BME280;60594;50.204;8.844;2023-12-29T05:50:18;99656.63;;;8.43;95.32
72570;BME280;60594;50.204;8.844;2023-12-29T05:52:45;99660.50;;;8.39;95.34
72570;BME280;60594;50.204;8.844;2023-12-29T05:55:15;99659.28;;;8.43;94.83
72570;BME280;60594;50.204;8.844;2023-12-29T05:57:42;99645.88;;;8.44;94.82
72570;BME280;60594;50.204;8.844;2023-12-29T06:00:09;99659.03;;;8.46;93.86
72570;BME280;60594;50.204;8.844;2023-12-29T06:02:41;99644.09;;;8.45;93.72
72570;BME280;60594;50.204;8.844;2023-12-29T06:05:10;99662.22;;;8.40;93.99
72570;BME280;60594;50.204;8.844;2023-12-29T06:07:37;99659.06;;;8.35;94.28
72570;BME280;60594;50.204;8.844;2023-12-29T06:10:03;99655.06;;;8.40;94.16
72570;BME280;60594;50.204;8.844;2023-12-29T06:12:30;99665.44;;;8.43;93.70
72570;BME280;60594;50.204;8.844;2023-12-29T06:14:56;99662.78;;;8.54;92.63
72570;BME280;60594;50.204;8.844;2023-12-29T06:17:23;99656.75;;;8.63;92.53
72570;BME280;60594;50.204;8.844;2023-12-29T06:19:50;99667.94;;;8.67;92.55
72570;BME280;60594;50.204;8.844;2023-12-29T06:22:16;99664.44;;;8.66;92.25
72570;BME280;60594;50.204;8.844;2023-12-29T06:24:43;99683.03;;;8.66;92.12
72570;BME280;60594;50.204;8.844;2023-12-29T06:27:09;99685.19;;;8.72;92.03
72570;BME280;60594;50.204;8.844;2023-12-29T06:29:36;99690.16;;;8.77;91.70
72570;BME280;60594;50.204;8.844;2023-12-29T06:32:04;99690.38;;;8.74;91.76
72570;BME280;60594;50.204;8.844;2023-12-29T06:34:30;99691.94;;;8.76;91.96
72570;BME280;60594;50.204;8.844;2023-12-29T06:36:57;99702.91;;;8.83;91.65
72570;BME280;60594;50.204;8.844;2023-12-29T06:39:23;99695.69;;;8.85;91.35
72570;BME280;60594;50.204;8.844;2023-12-29T06:41:49;99700.50;;;8.80;91.94
72570;BME280;60594;50.204;8.844;2023-12-29T06:44:16;99701.03;;;8.74;92.55
72570;BME280;60594;50.204;8.844;2023-12-29T06:46:42;99709.31;;;8.80;92.34
72570;BME280;60594;50.204;8.844;2023-12-29T06:49:09;99709.31;;;8.80;92.36
72570;BME280;60594;50.204;8.844;2023-12-29T06:51:35;99716.44;;;8.80;92.18
72570;BME280;60594;50.204;8.844;2023-12-29T06:54:02;99700.78;;;8.77;92.40
72570;BME280;60594;50.204;8.844;2023-12-29T06:56:29;99699.91;;;8.76;92.96
72570;BME280;60594;50.204;8.844;2023-12-29T06:58:55;99701.25;;;8.71;93.46
72570;BME280;60594;50.204;8.844;2023-12-29T07:01:22;99679.03;;;8.72;93.86
72570;BME280;60594;50.204;8.844;2023-12-29T07:03:48;99692.19;;;8.73;93.94
72570;BME280;60594;50.204;8.844;2023-12-29T07:06:14;99688.31;;;8.77;93.78
72570;BME280;60594;50.204;8.844;2023-12-29T07:08:41;99680.09;;;8.80;93.79
72570;BME280;60594;50.204;8.844;2023-12-29T07:11:11;99680.84;;;8.82;94.03
72570;BME280;60594;50.204;8.844;2023-12-29T07:13:40;99688.53;;;8.85;93.75
72570;BME280;60594;50.204;8.844;2023-12-29T07:16:07;99681.63;;;8.94;93.55
72570;BME280;60594;50.204;8.844;2023-12-29T07:18:33;99682.16;;;8.88;94.21
72570;BME280;60594;50.204;8.844;2023-12-29T07:20:59;99683.72;;;8.90;94.41
72570;BME280;60594;50.204;8.844;2023-12-29T07:23:26;99667.25;;;8.96;94.29
72570;BME280;60594;50.204;8.844;2023-12-29T07:25:52;99669.06;;;8.96;94.72
72570;BME280;60594;50.204;8.844;2023-12-29T07:28:18;99661.56;;;9.01;94.81
72570;BME280;60594;50.204;8.844;2023-12-29T07:30:45;99663.41;;;9.00;95.17
72570;BME280;60594;50.204;8.844;2023-12-29T07:33:11;99657.34;;;8.98;95.79
72570;BME280;60594;50.204;8.844;2023-12-29T07:35:38;99655.66;;;8.97;95.59
72570;BME280;60594;50.204;8.844;2023-12-29T07:38:04;99658.41;;;9.07;95.71
72570;BME280;60594;50.204;8.844;2023-12-29T07:40:31;99663.34;;;9.11;95.51
72570;BME280;60594;50.204;8.844;2023-12-29T07:42:57;99657.88;;;9.13;95.70
72570;BME280;60594;50.204;8.844;2023-12-29T07:45:24;99664.78;;;9.15;95.72
72570;BME280;60594;50.204;8.844;2023-12-29T07:47:50;99660.28;;;9.16;96.11
72570;BME280;60594;50.204;8.844;2023-12-29T07:50:17;99675.75;;;9.22;95.83
72570;BME280;60594;50.204;8.844;2023-12-29T07:52:44;99687.06;;;9.24;95.63
72570;BME280;60594;50.204;8.844;2023-12-29T07:55:10;99671.13;;;9.24;96.01
72570;BME280;60594;50.204;8.844;2023-12-29T07:57:37;99688.91;;;9.23;95.57
72570;BME280;60594;50.204;8.844;2023-12-29T08:00:04;99680.69;;;9.26;95.64
72570;BME280;60594;50.204;8.844;2023-12-29T08:02:38;99690.34;;;9.27;95.78
72570;BME280;60594;50.204;8.844;2023-12-29T08:05:05;99696.13;;;9.32;95.62
72570;BME280;60594;50.204;8.844;2023-12-29T08:07:31;99697.22;;;9.30;95.59
72570;BME280;60594;50.204;8.844;2023-12-29T08:09:59;99697.28;;;9.39;94.69
72570;BME280;60594;50.204;8.844;2023-12-29T08:12:25;99706.56;;;9.45;94.24
72570;BME280;60594;50.204;8.844;2023-12-29T08:14:51;99702.63;;;9.39;94.93
72570;BME280;60594;50.204;8.844;2023-12-29T08:17:18;99694.13;;;9.45;94.15
72570;BME280;60594;50.204;8.844;2023-12-29T08:19:44;99702.13;;;9.45;94.53
72570;BME280;60594;50.204;8.844;2023-12-29T08:22:11;99703.09;;;9.44;94.40
72570;BME280;60594;50.204;8.844;2023-12-29T08:24:40;99700.16;;;9.47;93.94
72570;BME280;60594;50.204;8.844;2023-12-29T08:27:11;99710.66;;;9.49;93.97
72570;BME280;60594;50.204;8.844;2023-12-29T08:29:38;99703.41;;;9.51;94.06
72570;BME280;60594;50.204;8.844;2023-12-29T08:32:04;99705.94;;;9.52;93.87
72570;BME280;60594;50.204;8.844;2023-12-29T08:34:31;99705.22;;;9.50;94.03
72570;BME280;60594;50.204;8.844;2023-12-29T08:36:58;99709.13;;;9.46;94.40
72570;BME280;60594;50.204;8.844;2023-12-29T08:39:24;99713.19;;;9.50;93.49
72570;BME280;60594;50.204;8.844;2023-12-29T08:41:51;99704.13;;;9.53;93.31
72570;BME280;60594;50.204;8.844;2023-12-29T08:44:17;99703.38;;;9.62;92.86
72570;BME280;60594;50.204;8.844;2023-12-29T08:46:44;99721.72;;;9.65;93.08
72570;BME280;60594;50.204;8.844;2023-12-29T08:49:10;99718.22;;;9.64;93.20
72570;BME280;60594;50.204;8.844;2023-12-29T08:51:37;99707.13;;;9.59;93.21
72570;BME280;60594;50.204;8.844;2023-12-29T08:54:03;99713.41;;;9.58;92.82
72570;BME280;60594;50.204;8.844;2023-12-29T08:56:30;99704.78;;;9.66;92.38
72570;BME280;60594;50.204;8.844;2023-12-29T08:58:56;99698.50;;;9.67;91.23
72570;BME280;60594;50.204;8.844;2023-12-29T09:01:23;99702.44;;;9.72;92.48
72570;BME280;60594;50.204;8.844;2023-12-29T09:03:49;99700.91;;;9.70;91.98
72570;BME280;60594;50.204;8.844;2023-12-29T09:06:16;99699.59;;;9.64;91.85
72570;BME280;60594;50.204;8.844;2023-12-29T09:08:42;99706.59;;;9.65;91.52
72570;BME280;60594;50.204;8.844;2023-12-29T09:11:09;99700.16;;;9.68;91.71
72570;BME280;60594;50.204;8.844;2023-12-29T09:13:35;99690.75;;;9.64;92.06
72570;BME280;60594;50.204;8.844;2023-12-29T09:16:01;99702.69;;;9.69;92.17
72570;BME280;60594;50.204;8.844;2023-12-29T09:18:28;99695.06;;;9.76;91.89
72570;BME280;60594;50.204;8.844;2023-12-29T09:20:54;99699.78;;;9.72;91.59
72570;BME280;60594;50.204;8.844;2023-12-29T09:23:21;99699.09;;;9.70;91.34
72570;BME280;60594;50.204;8.844;2023-12-29T09:25:47;99695.69;;;9.68;91.06
72570;BME280;60594;50.204;8.844;2023-12-29T09:28:14;99694.22;;;9.75;90.17
72570;BME280;60594;50.204;8.844;2023-12-29T09:30:40;99709.31;;;9.75;90.68
72570;BME280;60594;50.204;8.844;2023-12-29T09:33:06;99708.94;;;9.79;90.83
72570;BME280;60594;50.204;8.844;2023-12-29T09:35:33;99719.47;;;9.81;90.54
72570;BME280;60594;50.204;8.844;2023-12-29T09:37:59;99713.41;;;9.79;90.24
72570;BME280;60594;50.204;8.844;2023-12-29T09:40:26;99705.91;;;9.84;90.07
72570;BME280;60594;50.204;8.844;2023-12-29T09:42:52;99708.81;;;9.81;90.34
72570;BME280;60594;50.204;8.844;2023-12-29T09:45:23;99709.97;;;9.88;90.14
72570;BME280;60594;50.204;8.844;2023-12-29T09:47:51;99721.38;;;9.79;90.34
72570;BME280;60594;50.204;8.844;2023-12-29T09:50:19;99707.97;;;9.80;90.17
72570;BME280;60594;50.204;8.844;2023-12-29T09:52:48;99703.38;;;9.82;90.07
72570;BME280;60594;50.204;8.844;2023-12-29T09:55:14;99704.19;;;9.83;90.86
72570;BME280;60594;50.204;8.844;2023-12-29T09:57:41;99706.47;;;9.87;90.32
72570;BME280;60594;50.204;8.844;2023-12-29T10:00:10;99703.25;;;9.84;90.00
72570;BME280;60594;50.204;8.844;2023-12-29T10:02:38;99712.78;;;9.86;90.12
72570;BME280;60594;50.204;8.844;2023-12-29T10:05:04;99708.88;;;9.90;89.56
72570;BME280;60594;50.204;8.844;2023-12-29T10:07:36;99712.50;;;9.89;90.03
72570;BME280;60594;50.204;8.844;2023-12-29T10:10:05;99714.75;;;9.94;89.80
72570;BME280;60594;50.204;8.844;2023-12-29T10:12:33;99709.25;;;9.86;90.20
72570;BME280;60594;50.204;8.844;2023-12-29T10:20:42;99704.06;;;9.84;91.27
72570;BME280;60594;50.204;8.844;2023-12-29T10:23:17;99706.72;;;9.84;90.94
72570;BME280;60594;50.204;8.844;2023-12-29T10:25:44;99705.03;;;9.83;91.17
72570;BME280;60594;50.204;8.844;2023-12-29T10:28:13;99707.44;;;9.86;91.68
72570;BME280;60594;50.204;8.844;2023-12-29T10:30:39;99708.16;;;9.88;91.61
72570;BME280;60594;50.204;8.844;2023-12-29T10:33:06;99719.97;;;9.95;91.55
72570;BME280;60594;50.204;8.844;2023-12-29T10:35:34;99717.28;;;9.95;90.88
72570;BME280;60594;50.204;8.844;2023-12-29T10:38:12;99711.84;;;9.97;91.54
72570;BME280;60594;50.204;8.844;2023-12-29T10:40:39;99705.69;;;9.96;91.52
72570;BME280;60594;50.204;8.844;2023-12-29T10:43:06;99701.31;;;9.95;92.02
72570;BME280;60594;50.204;8.844;2023-12-29T10:45:35;99710.25;;;10.05;91.82
72570;BME280;60594;50.204;8.844;2023-12-29T10:48:05;99705.41;;;9.99;92.06
72570;BME280;60594;50.204;8.844;2023-12-29T10:50:45;99713.25;;;10.01;92.59
72570;BME280;60594;50.204;8.844;2023-12-29T10:53:15;99715.09;;;10.00;93.06
72570;BME280;60594;50.204;8.844;2023-12-29T10:55:43;99700.25;;;9.98;93.37
72570;BME280;60594;50.204;8.844;2023-12-29T10:58:09;99704.00;;;9.95;94.51
72570;BME280;60594;50.204;8.844;2023-12-29T11:00:36;99703.34;;;10.03;94.04
72570;BME280;60594;50.204;8.844;2023-12-29T11:03:03;99695.63;;;10.00;94.36
72570;BME280;60594;50.204;8.844;2023-12-29T11:05:29;99707.13;;;10.00;94.09
72570;BME280;60594;50.204;8.844;2023-12-29T11:07:56;99689.19;;;10.02;93.10
72570;BME280;60594;50.204;8.844;2023-12-29T11:10:25;99691.72;;;10.04;93.85
72570;BME280;60594;50.204;8.844;2023-12-29T11:12:51;99680.06;;;10.05;94.07
72570;BME280;60594;50.204;8.844;2023-12-29T11:15:18;99685.41;;;10.05;93.46
72570;BME280;60594;50.204;8.844;2023-12-29T11:17:46;99689.69;;;10.07;93.38
72570;BME280;60594;50.204;8.844;2023-12-29T11:20:16;99687.44;;;10.12;93.49
72570;BME280;60594;50.204;8.844;2023-12-29T11:22:45;99691.41;;;10.18;93.24
72570;BME280;60594;50.204;8.844;2023-12-29T11:25:12;99698.38;;;10.09;93.27
72570;BME280;60594;50.204;8.844;2023-12-29T11:27:39;99695.88;;;10.17;92.42
72570;BME280;60594;50.204;8.844;2023-12-29T11:30:07;99701.06;;;10.19;92.32
72570;BME280;60594;50.204;8.844;2023-12-29T11:32:45;99695.09;;;10.26;90.77
72570;BME280;60594;50.204;8.844;2023-12-29T11:35:20;99691.44;;;10.27;90.64
72570;BME280;60594;50.204;8.844;2023-12-29T11:38:51;99692.16;;;10.29;90.05
72570;BME280;60594;50.204;8.844;2023-12-29T11:43:35;99687.66;;;10.30;90.04
72570;BME280;60594;50.204;8.844;2023-12-29T11:46:02;99694.84;;;10.29;89.77
72570;BME280;60594;50.204;8.844;2023-12-29T11:48:54;99681.66;;;10.28;89.59
72570;BME280;60594;50.204;8.844;2023-12-29T11:51:40;99673.78;;;10.26;89.36
72570;BME280;60594;50.204;8.844;2023-12-29T11:54:07;99665.22;;;10.23;90.13
72570;BME280;60594;50.204;8.844;2023-12-29T11:56:38;99666.91;;;10.24;88.83
72570;BME280;60594;50.204;8.844;2023-12-29T11:59:21;99678.16;;;10.37;88.42
72570;BME280;60594;50.204;8.844;2023-12-29T12:01:50;99653.78;;;10.32;89.16
72570;BME280;60594;50.204;8.844;2023-12-29T12:07:09;99645.78;;;10.32;88.77
72570;BME280;60594;50.204;8.844;2023-12-29T12:09:36;99636.56;;;10.46;87.70
72570;BME280;60594;50.204;8.844;2023-12-29T12:12:03;99644.56;;;10.46;88.11
72570;BME280;60594;50.204;8.844;2023-12-29T12:17:31;99631.81;;;10.59;86.44
72570;BME280;60594;50.204;8.844;2023-12-29T12:20:06;99637.56;;;10.54;87.96
72570;BME280;60594;50.204;8.844;2023-12-29T12:22:36;99634.66;;;10.57;87.37
72570;BME280;60594;50.204;8.844;2023-12-29T12:25:03;99633.25;;;10.63;87.39
72570;BME280;60594;50.204;8.844;2023-12-29T12:27:30;99645.59;;;10.64;87.34
72570;BME280;60594;50.204;8.844;2023-12-29T12:29:59;99621.84;;;10.51;88.16
72570;BME280;60594;50.204;8.844;2023-12-29T12:32:26;99626.34;;;10.51;87.39
72570;BME280;60594;50.204;8.844;2023-12-29T12:34:54;99610.66;;;10.57;87.93
72570;BME280;60594;50.204;8.844;2023-12-29T12:39:48;99608.53;;;10.51;88.43
72570;BME280;60594;50.204;8.844;2023-12-29T12:42:16;99615.25;;;10.46;88.95
72570;BME280;60594;50.204;8.844;2023-12-29T12:45:04;99610.63;;;10.48;88.82
72570;BME280;60594;50.204;8.844;2023-12-29T12:47:35;99621.00;;;10.51;87.41
72570;BME280;60594;50.204;8.844;2023-12-29T12:50:04;99608.25;;;10.45;87.83
72570;BME280;60594;50.204;8.844;2023-12-29T12:52:32;99603.47;;;10.48;88.38
72570;BME280;60594;50.204;8.844;2023-12-29T12:54:59;99609.22;;;10.53;88.14
72570;BME280;60594;50.204;8.844;2023-12-29T12:57:26;99613.47;;;10.56;88.00
72570;BME280;60594;50.204;8.844;2023-12-29T12:59:53;99606.44;;;10.55;88.52
72570;BME280;60594;50.204;8.844;2023-12-29T13:02:20;99615.69;;;10.60;87.56
72570;BME280;60594;50.204;8.844;2023-12-29T13:04:47;99617.41;;;10.61;87.17
72570;BME280;60594;50.204;8.844;2023-12-29T13:07:17;99621.88;;;10.61;87.69
72570;BME280;60594;50.204;8.844;2023-12-29T13:09:49;99638.53;;;10.53;88.64
72570;BME280;60594;50.204;8.844;2023-12-29T13:12:17;99625.63;;;10.49;88.99
72570;BME280;60594;50.204;8.844;2023-12-29T13:14:44;99622.13;;;10.58;88.40
72570;BME280;60594;50.204;8.844;2023-12-29T13:17:14;99621.59;;;10.54;88.25
72570;BME280;60594;50.204;8.844;2023-12-29T13:19:42;99627.22;;;10.61;88.21
72570;BME280;60594;50.204;8.844;2023-12-29T13:22:10;99623.53;;;10.52;87.51
72570;BME280;60594;50.204;8.844;2023-12-29T13:24:44;99614.16;;;10.58;88.15
72570;BME280;60594;50.204;8.844;2023-12-29T13:27:11;99613.63;;;10.64;87.62
72570;BME280;60594;50.204;8.844;2023-12-29T13:29:39;99614.44;;;10.64;88.29